Latest Weather Observations for Noonamah

IDD60801

Issued at 7:31 am CST Saturday 28 May 2016 (issued every 30 minutes, with the page automatically refreshed every 10 minutes)

About weather observations | Map of weather stations | Latest weather observations for NT | Other Formats
Station Details ID: 014314 Name: NOONAMAH AIRSTRIP Lat: -12.61 Lon: 131.05 Height: 17.5 m
Data from the previous 72 hours. | See also: Recent months at Noonamah
Date/Time
CST
Temp
°C
App
Temp
°C
Dew
Point
Rel
Hum
%
Delta-T
°C
Wind Press
QNH
hPa
Press
MSL
hPa
Rain
since 9 am
mm
Dir
 
Spd
km/h
Gust
km/h
Spd
kts
Gust
kts
28/07:30am 23.4 28.3 22.4 94 0.7 CALM 0 0 0 0 1013.0 1012.9 0.0
28/07:00am 22.9 27.6 21.9 94 0.7 CALM 0 0 0 0 1012.8 1012.7 0.0
28/06:30am 23.1 27.9 22.1 94 0.7 CALM 0 0 0 0 1012.7 1012.6 0.0
28/06:00am 23.1 27.9 22.1 94 0.7 CALM 0 0 0 0 1012.3 1012.2 0.0
28/05:30am 23.2 27.9 22.0 93 0.8 CALM 0 0 0 0 1012.2 1012.1 0.0
28/05:00am 23.2 28.0 22.2 94 0.7 CALM 0 4 0 2 1012.2 1012.1 0.0
28/04:30am 23.1 27.7 21.7 92 0.9 CALM 0 0 0 0 1012.0 1011.9 0.0
28/04:00am 23.5 28.4 22.3 93 0.8 CALM 0 0 0 0 1011.8 1011.7 0.0
28/03:30am 23.6 28.4 22.2 92 0.9 CALM 0 0 0 0 1011.7 1011.6 0.0
28/03:00am 23.8 28.7 22.4 92 0.9 CALM 0 0 0 0 1011.7 1011.6 0.0
28/02:30am 23.8 28.6 22.1 90 1.1 CALM 0 0 0 0 1012.1 1012.0 0.0
28/02:00am 24.0 29.1 22.6 92 0.9 CALM 0 0 0 0 1012.1 1012.0 0.0
28/01:30am 24.1 29.2 22.7 92 0.9 CALM 0 0 0 0 1012.1 1012.0 0.0
28/01:00am 24.0 28.9 22.3 90 1.1 CALM 0 0 0 0 1012.1 1012.0 0.0
28/12:30am 24.4 29.5 22.7 90 1.1 CALM 0 0 0 0 1012.0 1011.9 0.0
28/12:00am 24.8 29.8 22.5 87 1.5 CALM 0 0 0 0 1012.1 1012.0 0.0
 
Date/Time
CST
Temp
°C
App
Temp
°C
Dew
Point
Rel
Hum
%
Delta-T
°C
Wind Press
QNH
hPa
Press
MSL
hPa
Rain
since 9 am
mm
Dir
 
Spd
km/h
Gust
km/h
Spd
kts
Gust
kts
27/11:30pm 25.2 30.5 23.1 88 1.4 CALM 0 0 0 0 1012.2 1012.1 0.0
27/11:00pm 25.1 30.5 23.2 89 1.3 CALM 0 0 0 0 1012.2 1012.1 0.0
27/10:30pm 25.4 30.6 22.9 86 1.7 CALM 0 0 0 0 1012.1 1012.0 0.0
27/10:00pm 26.2 31.6 23.3 84 2.0 CALM 0 0 0 0 1012.3 1012.2 0.0
27/09:30pm 26.6 31.8 23.5 83 2.1 WNW 2 4 1 2 1012.2 1012.1 0.0
27/09:00pm 27.1 32.1 23.8 82 2.3 W 4 4 2 2 1012.1 1012.0 0.0
27/08:30pm 27.3 32.2 23.7 81 2.5 NW 4 6 2 3 1011.9 1011.8 0.0
27/08:00pm 27.7 32.2 23.7 79 2.8 WNW 6 7 3 4 1011.7 1011.6 0.0
27/07:30pm 28.2 33.1 23.6 76 3.2 NNW 4 6 2 3 1011.3 1011.2 0.0
27/07:00pm 28.5 32.6 23.0 72 3.8 NW 6 7 3 4 1011.0 1010.9 0.0
27/06:30pm 29.3 33.0 22.3 66 4.7 NW 6 11 3 6 1010.8 1010.7 0.0
27/06:00pm 30.8 34.0 21.6 58 6.2 NW 7 11 4 6 1010.5 1010.4 0.0
27/05:30pm 31.5 34.4 21.7 56 6.6 WNW 9 15 5 8 1010.3 1010.2 0.0
27/05:00pm 31.7 34.9 23.0 60 6.0 W 11 17 6 9 1010.2 1010.1 0.0
27/04:30pm 32.2 35.7 22.9 58 6.4 NW 9 13 5 7 1010.1 1010.0 0.0
27/04:00pm 31.6 34.2 22.6 59 6.2 NW 13 19 7 10 1010.1 1010.0 0.0
27/03:30pm 34.1 37.1 21.9 49 8.3 W 9 15 5 8 1010.0 1009.9 0.0
27/03:00pm 34.3 36.1 18.8 40 10.2 NW 7 15 4 8 1010.4 1010.3 0.0
27/02:30pm 34.2 36.4 19.1 41 9.9 NE 6 7 3 4 1010.9 1010.8 0.0
27/02:00pm 33.3 35.6 19.4 44 9.2 NE 6 9 3 5 1011.3 1011.2 0.0
27/01:30pm 33.0 35.5 20.2 47 8.5 W 7 11 4 6 1012.0 1011.9 0.0
27/01:00pm 33.8 36.9 19.5 43 9.4 SSW 2 7 1 4 1012.5 1012.4 0.0
27/12:30pm 34.0 36.6 20.0 43 9.3 NW 6 11 3 6 1012.9 1012.8 0.0
27/12:00pm 32.3 35.4 20.2 48 8.0 SW 4 7 2 4 1013.3 1013.2 0.0
27/11:30am 32.6 35.9 21.8 53 7.3 S 7 17 4 9 1013.6 1013.5 0.0
27/11:00am 31.9 35.2 20.8 51 7.4 SSW 4 7 2 4 1014.0 1013.9 0.0
27/10:30am 30.9 34.3 21.7 58 6.2 W 6 11 3 6 1014.3 1014.2 0.0
27/10:00am 30.4 34.9 23.6 67 4.7 WSW 6 11 3 6 1014.5 1014.4 0.0
27/09:30am 29.3 34.0 24.0 73 3.7 W 6 11 3 6 1014.4 1014.3 0.0
27/09:00am 28.1 32.9 24.1 79 2.8 SSW 6 9 3 5 1014.3 1014.2 0.0
27/08:30am 26.0 31.6 23.5 86 1.7 CALM 0 4 0 2 1014.0 1013.9 0.0
27/08:00am 24.4 29.3 23.0 92 0.9 ESE 2 4 1 2 1013.5 1013.4 0.0
27/07:30am 22.8 26.9 21.6 93 0.8 ESE 2 2 1 1 1013.4 1013.3 0.0
27/07:00am 22.3 26.6 21.1 93 0.8 CALM 0 0 0 0 1013.0 1012.9 0.0
27/06:30am 22.3 26.5 20.9 92 0.9 CALM 0 0 0 0 1012.6 1012.5 0.0
27/06:00am 22.4 26.7 21.2 93 0.8 CALM 0 0 0 0 1012.4 1012.3 0.0
27/05:30am 22.5 26.9 21.3 93 0.8 CALM 0 0 0 0 1012.3 1012.2 0.0
27/05:00am 22.8 27.2 21.4 92 0.9 CALM 0 0 0 0 1012.2 1012.1 0.0
27/04:30am 22.9 27.4 21.5 92 0.9 CALM 0 0 0 0 1012.1 1012.0 0.0
27/04:00am 23.0 27.5 21.5 91 1.0 CALM 0 0 0 0 1012.1 1012.0 0.0
27/03:30am 23.3 27.8 21.6 90 1.1 CALM 0 0 0 0 1012.2 1012.1 0.0
27/03:00am 23.5 28.2 21.9 91 1.1 CALM 0 0 0 0 1012.1 1012.0 0.0
27/02:30am 23.6 28.4 22.2 92 0.9 CALM 0 0 0 0 1012.3 1012.2 0.0
27/02:00am 23.6 28.3 21.9 90 1.1 CALM 0 0 0 0 1012.4 1012.3 0.0
27/01:30am 23.9 28.7 22.2 90 1.1 CALM 0 0 0 0 1012.5 1012.4 0.0
27/01:00am 24.2 29.1 22.3 89 1.3 CALM 0 0 0 0 1012.6 1012.5 0.0
27/12:30am 24.7 29.9 22.8 89 1.3 CALM 0 0 0 0 1012.6 1012.5 0.0
27/12:00am 24.8 29.9 22.7 88 1.4 CALM 0 0 0 0 1012.7 1012.6 0.0
 
Date/Time
CST
Temp
°C
App
Temp
°C
Dew
Point
Rel
Hum
%
Delta-T
°C
Wind Press
QNH
hPa
Press
MSL
hPa
Rain
since 9 am
mm
Dir
 
Spd
km/h
Gust
km/h
Spd
kts
Gust
kts
26/11:30pm 25.0 30.1 22.7 87 1.6 CALM 0 0 0 0 1012.8 1012.7 0.0
26/11:00pm 25.4 30.6 22.9 86 1.7 CALM 0 0 0 0 1012.7 1012.6 0.0
26/10:30pm 26.1 31.0 23.0 83 2.1 WSW 2 4 1 2 1012.8 1012.7 0.0
26/10:00pm 26.5 31.2 23.4 83 2.1 WNW 4 6 2 3 1012.7 1012.6 0.0
26/09:30pm 27.1 32.0 23.6 81 2.4 WSW 4 6 2 3 1012.6 1012.5 0.0
26/09:00pm 27.1 31.7 23.1 79 2.7 W 4 6 2 3 1012.4 1012.3 0.0
26/08:30pm 27.6 32.3 23.4 78 2.9 NW 4 4 2 2 1012.2 1012.1 0.0
26/08:00pm 28.1 32.5 23.5 76 3.2 WNW 6 6 3 3 1011.8 1011.7 0.0
26/07:30pm 28.4 32.7 23.3 74 3.5 W 6 7 3 4 1011.4 1011.3 0.0
26/07:00pm 29.0 33.2 23.4 72 3.8 NW 7 11 4 6 1011.2 1011.1 0.0
26/06:30pm 29.9 33.6 23.3 67 4.5 NW 9 17 5 9 1010.8 1010.7 0.0
26/06:00pm 31.6 35.3 23.2 61 5.8 NW 9 11 5 6 1010.5 1010.4 0.0
26/05:30pm 34.7 36.3 17.0 35 11.3 SSE 4 7 2 4 1010.1 1010.0 0.0
26/05:00pm 34.7 35.6 16.5 33 11.6 SE 7 13 4 7 1009.9 1009.8 0.0
26/04:30pm 34.9 35.8 16.7 34 11.6 ESE 7 13 4 7 1010.0 1009.9 0.0
26/04:00pm 35.5 36.6 17.2 33 11.8 SSW 7 11 4 6 1010.1 1010.0 0.0
26/03:30pm 35.0 35.4 16.3 32 11.9 SSE 9 17 5 9 1010.3 1010.2 0.0
26/03:00pm 35.4 36.3 16.7 33 12.0 E 7 13 4 7 1010.5 1010.4 0.0
26/02:30pm 35.0 35.8 16.3 32 11.9 SSE 7 15 4 8 1010.7 1010.6 0.0
26/02:00pm 34.4 36.4 18.8 39 10.2 ENE 6 13 3 7 1011.1 1011.0 0.0
26/01:30pm 34.6 36.1 19.0 39 10.3 E 9 15 5 8 1011.6 1011.5 0.0
26/01:00pm 33.9 36.1 19.6 43 9.5 NE 7 13 4 7 1012.2 1012.1 0.0
26/12:30pm 32.9 35.5 20.1 47 8.5 E 6 13 3 7 1012.8 1012.7 0.0
26/12:00pm 33.7 36.7 21.2 48 8.4 NE 7 11 4 6 1013.2 1013.1 0.0
26/11:30am 32.9 36.0 21.4 50 7.8 NNE 7 11 4 6 1013.6 1013.5 0.0
26/11:00am 31.9 35.7 21.7 54 6.9 ENE 4 7 2 4 1013.9 1013.8 0.0
26/10:30am 31.0 35.0 22.0 58 6.1 SSW 4 6 2 3 1014.1 1014.0 0.0
26/10:00am 30.5 34.5 22.7 63 5.3 SW 6 11 3 6 1014.1 1014.0 0.0
26/09:30am 29.8 34.3 23.7 70 4.2 SW 6 9 3 5 1014.0 1013.9 0.0
26/09:00am 28.3 33.0 23.4 75 3.4 S 4 7 2 4 1013.8 1013.7 0.0
26/08:30am 27.0 32.3 23.7 82 2.3 SE 2 4 1 2 1013.6 1013.5 0.0
26/08:00am 25.2 30.3 23.4 90 1.2 SE 2 2 1 1 1013.2 1013.1 0.0
26/07:30am 23.4 28.0 22.4 94 0.7 SE 2 7 1 4 1012.9 1012.8 0.0
26/07:00am 22.8 27.3 21.6 93 0.8 CALM 0 0 0 0 1012.5 1012.4 0.0
26/06:30am 23.1 27.0 21.9 93 0.8 SE 4 6 2 3 1012.2 1012.1 0.0
26/06:00am 23.2 27.7 21.6 91 1.1 CALM 0 0 0 0 1012.1 1012.0 0.0
26/05:30am 23.4 28.1 22.0 92 0.9 CALM 0 0 0 0 1011.9 1011.8 0.0
26/05:00am 23.5 28.1 21.8 90 1.1 CALM 0 0 0 0 1011.8 1011.7 0.0
26/04:30am 23.8 28.6 22.1 90 1.1 CALM 0 0 0 0 1011.8 1011.7 0.0
26/04:00am 23.9 28.8 22.3 91 1.1 CALM 0 0 0 0 1011.7 1011.6 0.0
26/03:30am 24.2 29.3 22.6 91 1.1 CALM 0 0 0 0 1011.7 1011.6 0.0
26/03:00am 24.3 29.4 22.6 90 1.1 CALM 0 0 0 0 1011.9 1011.8 0.0
26/02:30am 24.3 29.4 22.6 90 1.1 CALM 0 0 0 0 1012.1 1012.0 0.0
26/02:00am 24.7 29.9 22.9 90 1.2 CALM 0 0 0 0 1012.3 1012.2 0.0
26/01:30am 25.0 30.2 22.9 88 1.4 CALM 0 0 0 0 1012.2 1012.1 0.0
26/01:00am 25.3 30.7 23.2 88 1.4 CALM 0 0 0 0 1012.4 1012.3 0.0
26/12:30am 25.4 30.7 23.1 87 1.6 CALM 0 0 0 0 1012.5 1012.4 0.0
26/12:00am 25.4 30.6 22.9 86 1.7 CALM 0 0 0 0 1012.4 1012.3 0.0
 
Date/Time
CST
Temp
°C
App
Temp
°C
Dew
Point
Rel
Hum
%
Delta-T
°C
Wind Press
QNH
hPa
Press
MSL
hPa
Rain
since 9 am
mm
Dir
 
Spd
km/h
Gust
km/h
Spd
kts
Gust
kts
25/11:30pm 25.9 31.3 23.2 85 1.8 CALM 0 0 0 0 1012.6 1012.5 0.0
25/11:00pm 25.9 30.8 23.0 84 2.0 NE 2 2 1 1 1012.7 1012.6 0.0
25/10:30pm 26.4 31.7 23.1 82 2.2 CALM 0 0 0 0 1012.6 1012.5 0.0
25/10:00pm 26.4 30.5 22.9 81 2.4 SSE 6 7 3 4 1012.6 1012.5 0.0
25/09:30pm 26.6 30.9 22.7 79 2.6 W 4 4 2 2 1012.3 1012.2 0.0
25/09:00pm 27.1 31.6 22.9 78 2.9 NW 4 4 2 2 1012.1 1012.0 0.0
25/08:30pm 27.2 31.6 22.8 77 3.0 NW 4 4 2 2 1011.8 1011.7 0.0
25/08:00pm 27.8 32.1 22.7 74 3.5 NNW 4 6 2 3 1011.4 1011.3 0.0
25/07:30pm 28.4 32.9 22.9 72 3.8 NNW 4 6 2 3 1011.0 1010.9 0.0
25/07:00pm 29.1 33.5 22.8 69 4.3 NNW 4 6 2 3 1010.6 1010.5 0.0
25/06:30pm 29.8 33.9 23.0 67 4.7 NNW 6 6 3 3 1010.3 1010.2 0.0
25/06:00pm 30.8 34.9 22.9 62 5.4 N 6 7 3 4 1010.0 1009.9 0.0
25/05:30pm 31.5 35.1 23.1 61 5.8 N 9 15 5 8 1009.5 1009.4 0.0
25/05:00pm 32.2 34.9 22.9 58 6.4 NNW 13 22 7 12 1009.3 1009.2 0.0
25/04:30pm 33.5 37.2 23.2 54 7.1 NNW 9 17 5 9 1009.0 1008.8 0.0
25/04:00pm 35.4 38.0 19.3 38 10.7 NE 4 9 2 5 1008.8 1008.6 0.0
25/03:30pm 35.2 37.4 19.6 40 10.4 NNE 7 15 4 8 1009.0 1008.8 0.0
25/03:00pm 34.6 36.3 18.6 38 10.5 NE 7 13 4 7 1009.1 1008.9 0.0
25/02:30pm 35.1 37.1 19.1 39 10.6 E 7 15 4 8 1009.3 1009.2 0.0
25/02:00pm 33.9 37.0 21.0 47 8.7 E 6 9 3 5 1009.8 1009.7 0.0
25/01:30pm 33.4 35.6 20.5 46 8.6 NE 9 13 5 7 1010.4 1010.3 0.0
25/01:00pm 33.5 36.5 21.3 48 8.2 NE 7 15 4 8 1010.9 1010.8 0.0
25/12:30pm 32.9 36.2 21.4 50 7.8 NNE 6 9 3 5 1011.3 1011.2 0.0
25/12:00pm 33.0 36.5 21.8 51 7.6 ENE 6 11 3 6 1011.8 1011.7 0.0
25/11:30am 31.8 35.7 22.5 58 6.4 SE 6 9 3 5 1012.2 1012.1 0.0
25/11:00am 31.3 35.3 22.0 57 6.3 NNW 4 7 2 4 1012.5 1012.4 0.0
25/10:30am 31.3 35.2 22.6 60 5.9 ENE 6 9 3 5 1012.8 1012.7 0.0
25/10:00am 30.2 34.9 23.4 67 4.7 WNW 4 11 2 6 1013.1 1013.0 0.0
25/09:30am 29.5 34.6 23.4 69 4.2 NNW 2 4 1 2 1013.1 1013.0 0.0
25/09:00am 28.5 34.3 23.9 76 3.2 CALM 0 2 0 1 1013.0 1012.9 0.0
25/08:30am 26.9 32.3 24.5 87 1.7 NE 4 6 2 3 1012.8 1012.7 0.0
25/08:00am 25.1 30.8 23.7 92 1.0 CALM 0 0 0 0 1012.6 1012.5 0.0

Other Formats:

Comma delimited format used in spreadsheet applications
http://www.bom.gov.au/fwo/IDD60801/IDD60801.94105.axf

JavaScript Object Notation format (JSON) in row-major order
http://www.bom.gov.au/fwo/IDD60801/IDD60801.94105.json